createdAt,value
2018-02-02T00:01:58.513Z,99171
2018-02-02T00:04:24.588Z,99177
2018-02-02T00:06:50.675Z,99176
2018-02-02T00:09:16.742Z,99185
2018-02-02T00:11:42.825Z,99176
2018-02-02T00:14:08.967Z,99186
2018-02-02T00:19:45.349Z,99178
2018-02-02T00:22:11.421Z,99186
2018-02-02T00:24:37.501Z,99197
2018-02-02T00:27:03.576Z,99183
2018-02-02T00:29:29.654Z,99177
2018-02-02T00:31:55.738Z,99182
2018-02-02T00:34:21.811Z,99181
2018-02-02T00:36:47.917Z,99176
2018-02-02T00:39:14.783Z,99180
2018-02-02T00:41:40.857Z,99184
2018-02-02T00:44:06.974Z,99184
2018-02-02T00:46:33.057Z,99182
2018-02-02T00:48:59.545Z,99175
2018-02-02T00:54:28.889Z,99174
2018-02-02T00:56:54.974Z,99180
2018-02-02T00:59:21.050Z,99177
2018-02-02T01:01:47.130Z,99182
2018-02-02T01:04:13.213Z,99182
2018-02-02T01:06:39.281Z,99180
2018-02-02T01:09:05.404Z,99193
2018-02-02T01:11:31.450Z,99186
2018-02-02T01:13:58.249Z,99174
2018-02-02T01:16:24.330Z,99180
2018-02-02T01:18:50.397Z,99185
2018-02-02T01:21:16.681Z,99186
2018-02-02T01:23:43.489Z,99187
2018-02-02T01:26:09.567Z,99196
2018-02-02T01:28:35.625Z,99194
2018-02-02T01:31:01.701Z,99187
2018-02-02T01:33:27.786Z,99197
2018-02-02T01:35:53.853Z,99197
2018-02-02T01:38:20.661Z,99204
2018-02-02T01:40:46.751Z,99202
2018-02-02T01:43:12.832Z,99201
2018-02-02T01:45:38.913Z,99195
2018-02-02T01:48:16.233Z,99190
2018-02-02T01:50:42.318Z,99191
2018-02-02T01:53:08.394Z,99186
2018-02-02T01:55:34.487Z,99187
2018-02-02T01:58:00.549Z,99191
2018-02-02T02:00:27.358Z,99187
2018-02-02T02:02:53.625Z,99183
2018-02-02T02:05:20.437Z,99193
2018-02-02T02:07:46.551Z,99194
2018-02-02T02:10:12.606Z,99185
2018-02-02T02:12:39.413Z,99189
2018-02-02T02:15:05.490Z,99188
2018-02-02T02:17:32.302Z,99185
2018-02-02T02:19:58.382Z,99196
2018-02-02T02:22:24.633Z,99178
2018-02-02T02:24:50.710Z,99184
2018-02-02T02:27:17.513Z,99177
2018-02-02T02:29:43.613Z,99184
2018-02-02T02:32:09.674Z,99182
2018-02-02T02:34:35.754Z,99178
2018-02-02T02:37:01.838Z,99179
2018-02-02T02:39:27.903Z,99173
2018-02-02T02:41:53.985Z,99184
2018-02-02T02:44:20.806Z,99178
2018-02-02T02:46:46.890Z,99179
2018-02-02T02:49:12.954Z,99176
2018-02-02T02:51:39.020Z,99161
2018-02-02T02:54:05.556Z,99168
2018-02-02T02:56:31.630Z,99170
2018-02-02T02:58:57.693Z,99173
2018-02-02T03:01:23.777Z,99165
2018-02-02T03:03:49.837Z,99177
2018-02-02T03:06:16.645Z,99171
2018-02-02T03:08:42.719Z,99167
2018-02-02T03:11:08.865Z,99170
2018-02-02T03:13:34.961Z,99163
2018-02-02T03:16:01.785Z,99163
2018-02-02T03:18:27.840Z,99165
2018-02-02T03:20:53.918Z,99167
2018-02-02T03:23:19.981Z,99171
2018-02-02T03:25:46.057Z,99176
2018-02-02T03:28:12.130Z,99175
2018-02-02T03:30:38.954Z,99183
2018-02-02T03:33:05.022Z,99173
2018-02-02T03:35:31.097Z,99180
2018-02-02T03:37:57.190Z,99178
2018-02-02T03:40:23.257Z,99178
2018-02-02T03:42:49.349Z,99180
2018-02-02T03:45:15.444Z,99181
2018-02-02T03:47:41.530Z,99181
2018-02-02T03:50:07.605Z,99188
2018-02-02T03:52:33.678Z,99186
2018-02-02T03:54:59.750Z,99180
2018-02-02T03:57:25.845Z,99189
2018-02-02T03:59:51.995Z,99193
2018-02-02T04:02:18.077Z,99194
2018-02-02T04:04:44.156Z,99203
2018-02-02T04:07:10.212Z,99196
2018-02-02T04:09:36.281Z,99186
2018-02-02T04:12:02.378Z,99184
2018-02-02T04:14:28.446Z,99192
2018-02-02T04:16:54.553Z,99184
2018-02-02T04:19:21.349Z,99196
2018-02-02T04:21:47.410Z,99196
2018-02-02T04:24:14.228Z,99193
2018-02-02T04:26:40.285Z,99193
2018-02-02T04:29:07.468Z,99201
2018-02-02T04:31:33.545Z,99195
2018-02-02T04:34:00.361Z,99197
2018-02-02T04:36:26.450Z,99203
2018-02-02T04:38:52.528Z,99197
2018-02-02T04:41:18.598Z,99201
2018-02-02T04:43:44.652Z,99201
2018-02-02T04:46:10.726Z,99193
2018-02-02T04:48:37.037Z,99195
2018-02-02T04:51:03.109Z,99213
2018-02-02T04:53:29.183Z,99214
2018-02-02T04:55:55.271Z,99213
2018-02-02T04:58:21.336Z,99215
2018-02-02T05:00:47.399Z,99219
2018-02-02T05:03:13.490Z,99214
2018-02-02T05:05:39.553Z,99204
2018-02-02T05:08:05.622Z,99206
2018-02-02T05:10:31.697Z,99207
2018-02-02T05:12:57.757Z,99203
2018-02-02T05:15:23.822Z,99203
2018-02-02T05:17:50.652Z,99199
2018-02-02T05:20:16.761Z,99211
2018-02-02T05:22:42.827Z,99209
2018-02-02T05:25:08.917Z,99203
2018-02-02T05:27:34.978Z,99205
2018-02-02T05:30:01.053Z,99204
2018-02-02T05:32:27.141Z,99210
2018-02-02T05:34:53.221Z,99205
2018-02-02T05:37:19.334Z,99202
2018-02-02T05:39:45.410Z,99200
2018-02-02T05:42:11.477Z,99193
2018-02-02T05:44:37.581Z,99205
2018-02-02T05:47:03.645Z,99188
2018-02-02T05:49:30.469Z,99206
2018-02-02T05:51:56.585Z,99200
2018-02-02T05:54:22.653Z,99212
2018-02-02T05:56:48.726Z,99204
2018-02-02T05:59:14.786Z,99197
2018-02-02T06:01:40.853Z,99204
2018-02-02T06:04:06.937Z,99209
2018-02-02T06:06:33.006Z,99201
2018-02-02T06:08:59.073Z,99207
2018-02-02T06:11:25.154Z,99213
2018-02-02T06:13:51.237Z,99209
2018-02-02T06:16:17.305Z,99204
2018-02-02T06:18:43.373Z,99209
2018-02-02T06:21:09.463Z,99214
2018-02-02T06:23:35.538Z,99210
2018-02-02T06:26:01.624Z,99211
2018-02-02T06:28:27.697Z,99224
2018-02-02T06:30:54.517Z,99224
2018-02-02T06:33:20.625Z,99205
2018-02-02T06:35:46.699Z,99207
2018-02-02T06:38:13.513Z,99209
2018-02-02T06:40:39.573Z,99220
2018-02-02T06:43:06.385Z,99231
2018-02-02T06:45:32.466Z,99241
2018-02-02T06:47:58.521Z,99229
2018-02-02T06:50:24.665Z,99232
2018-02-02T06:52:50.762Z,99233
2018-02-02T06:55:16.826Z,99229
2018-02-02T06:57:43.642Z,99230
2018-02-02T07:00:09.718Z,99224
2018-02-02T07:02:35.777Z,99229
2018-02-02T07:05:01.873Z,99231
2018-02-02T07:07:27.941Z,99228
2018-02-02T07:09:54.018Z,99228
2018-02-02T07:12:20.097Z,99233
2018-02-02T07:14:46.165Z,99241
2018-02-02T07:17:12.237Z,99239
2018-02-02T07:19:38.350Z,99244
2018-02-02T07:22:04.413Z,99250
2018-02-02T07:24:31.233Z,99251
2018-02-02T07:26:57.298Z,99255
2018-02-02T07:29:24.102Z,99259
2018-02-02T07:31:50.185Z,99260
2018-02-02T07:34:16.260Z,99253
2018-02-02T07:36:42.335Z,99261
2018-02-02T07:39:08.397Z,99275
2018-02-02T07:41:34.486Z,99285
2018-02-02T07:44:00.562Z,99284
2018-02-02T07:46:27.126Z,99282
2018-02-02T07:48:53.962Z,99292
2018-02-02T07:51:20.770Z,99280
2018-02-02T07:53:46.842Z,99291
2018-02-02T07:56:12.914Z,99284
2018-02-02T07:58:38.993Z,99250
2018-02-02T08:01:11.170Z,99294
2018-02-02T08:03:37.466Z,99290
2018-02-02T08:06:04.277Z,99304
2018-02-02T08:08:30.346Z,99297
2018-02-02T08:10:56.441Z,99306
2018-02-02T08:13:24.007Z,99298
2018-02-02T08:15:50.082Z,99306
2018-02-02T08:18:16.171Z,99298
2018-02-02T08:20:42.253Z,99305
2018-02-02T08:23:08.387Z,99297
2018-02-02T08:25:34.430Z,99297
2018-02-02T08:28:00.499Z,99309
2018-02-02T08:30:26.561Z,99316
2018-02-02T08:32:52.633Z,99323
2018-02-02T08:35:19.602Z,99323
2018-02-02T08:37:45.701Z,99324
2018-02-02T08:40:12.513Z,99328
2018-02-02T08:42:38.665Z,99326
2018-02-02T08:45:05.567Z,99328
2018-02-02T08:47:31.644Z,99328
2018-02-02T08:49:57.726Z,99324
2018-02-02T08:52:23.818Z,99330
2018-02-02T08:54:49.890Z,99333
2018-02-02T08:57:15.955Z,99336
2018-02-02T08:59:42.204Z,99339
2018-02-02T09:02:08.290Z,99331
2018-02-02T09:04:34.362Z,99344
2018-02-02T09:07:00.441Z,99351
2018-02-02T09:09:26.603Z,99341
2018-02-02T09:11:52.660Z,99347
2018-02-02T09:14:18.786Z,99352
2018-02-02T09:16:45.602Z,99346
2018-02-02T09:19:11.674Z,99348
2018-02-02T09:21:38.485Z,99355
2018-02-02T09:24:04.560Z,99358
2018-02-02T09:26:30.625Z,99360
2018-02-02T09:28:56.686Z,99361
2018-02-02T09:31:23.533Z,99370
2018-02-02T09:33:49.610Z,99358
2018-02-02T09:36:15.690Z,99366
2018-02-02T09:38:42.933Z,99363
2018-02-02T09:41:09.011Z,99359
2018-02-02T09:43:35.077Z,99368
2018-02-02T09:46:01.146Z,99367
2018-02-02T09:48:27.226Z,99375
2018-02-02T09:50:53.309Z,99372
2018-02-02T09:53:26.205Z,99375
2018-02-02T09:55:52.329Z,99381
2018-02-02T09:58:18.437Z,99382
2018-02-02T10:00:44.506Z,99386
2018-02-02T10:03:10.617Z,99387
2018-02-02T10:05:36.689Z,99383
2018-02-02T10:08:02.773Z,99376
2018-02-02T10:10:28.863Z,99385
2018-02-02T10:12:54.931Z,99386
2018-02-02T10:15:21.254Z,99387
2018-02-02T10:17:47.327Z,99395
2018-02-02T10:20:13.824Z,99385
2018-02-02T10:22:39.902Z,99392
2018-02-02T10:25:05.974Z,99385
2018-02-02T10:27:32.053Z,99380
2018-02-02T10:29:58.123Z,99384
2018-02-02T10:32:24.186Z,99391
2018-02-02T10:34:50.273Z,99391
2018-02-02T10:37:16.709Z,99392
2018-02-02T10:39:42.866Z,99396
2018-02-02T10:42:08.957Z,99392
2018-02-02T10:44:35.029Z,99392
2018-02-02T10:47:01.130Z,99393
2018-02-02T10:49:27.933Z,99402
2018-02-02T10:51:54.010Z,99399
2018-02-02T10:54:20.129Z,99409
2018-02-02T10:56:46.198Z,99398
2018-02-02T10:59:12.290Z,99400
2018-02-02T11:01:38.405Z,99400
2018-02-02T11:04:07.142Z,99405
2018-02-02T11:06:33.226Z,99406
2018-02-02T11:08:59.305Z,99397
2018-02-02T11:11:25.481Z,99405
2018-02-02T11:13:51.541Z,99404
2018-02-02T11:16:17.613Z,99401
2018-02-02T11:18:43.693Z,99405
2018-02-02T11:21:09.780Z,99407
2018-02-02T11:23:35.890Z,99403
2018-02-02T11:26:01.986Z,99392
2018-02-02T11:28:28.064Z,99393
2018-02-02T11:30:54.130Z,99399
2018-02-02T11:33:20.235Z,99395
2018-02-02T11:35:46.313Z,99400
2018-02-02T11:38:12.385Z,99400
2018-02-02T11:40:38.474Z,99404
2018-02-02T11:43:04.553Z,99393
2018-02-02T11:45:30.635Z,99402
2018-02-02T11:47:56.729Z,99402
2018-02-02T11:50:23.545Z,99407
2018-02-02T11:52:49.612Z,99402
2018-02-02T11:55:15.697Z,99409
2018-02-02T11:57:41.765Z,99400
2018-02-02T12:00:07.898Z,99400
2018-02-02T12:02:33.958Z,99405
2018-02-02T12:05:00.022Z,99404
2018-02-02T12:07:26.862Z,99402
2018-02-02T12:09:52.930Z,99408
2018-02-02T12:12:19.002Z,99405
2018-02-02T12:14:45.105Z,99405
2018-02-02T12:17:11.178Z,99413
2018-02-02T12:19:37.320Z,99408
2018-02-02T12:22:04.258Z,99416
2018-02-02T12:27:50.953Z,99424
2018-02-02T12:30:18.058Z,99421
2018-02-02T12:32:44.969Z,99418
2018-02-02T12:35:11.933Z,99421
2018-02-02T12:37:38.105Z,99427
2018-02-02T12:40:04.153Z,99421
2018-02-02T12:42:30.984Z,99423
2018-02-02T12:44:57.052Z,99420
2018-02-02T12:47:23.185Z,99430
2018-02-02T12:50:16.537Z,99428
2018-02-02T12:52:42.608Z,99435
2018-02-02T12:55:09.021Z,99431
2018-02-02T12:57:35.268Z,99436
2018-02-02T13:00:01.350Z,99432
2018-02-02T13:02:27.421Z,99442
2018-02-02T13:04:53.486Z,99427
2018-02-02T13:07:19.566Z,99444
2018-02-02T13:09:45.661Z,99448
2018-02-02T13:12:11.729Z,99436
2018-02-02T13:14:39.278Z,99443
2018-02-02T13:17:05.358Z,99452
2018-02-02T13:19:31.430Z,99449
2018-02-02T13:21:57.531Z,99461
2018-02-02T13:24:23.953Z,99451
2018-02-02T13:26:50.037Z,99456
2018-02-02T13:29:16.857Z,99458
2018-02-02T13:31:42.938Z,99454
2018-02-02T13:34:09.159Z,99460
2018-02-02T13:36:35.221Z,99450
2018-02-02T13:39:01.312Z,99448
2018-02-02T13:41:27.438Z,99462
2018-02-02T13:43:53.560Z,99459
2018-02-02T13:46:19.650Z,99462
2018-02-02T13:48:45.716Z,99460
2018-02-02T13:51:12.221Z,99456
2018-02-02T13:53:38.284Z,99462
2018-02-02T13:56:04.377Z,99467
2018-02-02T13:58:31.202Z,99462
2018-02-02T14:00:57.273Z,99464
2018-02-02T14:03:23.341Z,99465
2018-02-02T14:05:49.551Z,99464
2018-02-02T14:08:15.640Z,99470
2018-02-02T14:10:41.741Z,99470
2018-02-02T14:13:08.566Z,99465
2018-02-02T14:15:34.642Z,99468
2018-02-02T14:18:00.739Z,99467
2018-02-02T14:20:26.822Z,99461
2018-02-02T14:22:52.889Z,99468
2018-02-02T14:25:18.989Z,99482
2018-02-02T14:27:45.092Z,99477
2018-02-02T14:30:11.173Z,99481
2018-02-02T14:32:37.309Z,99479
2018-02-02T14:35:03.397Z,99482
2018-02-02T14:37:30.216Z,99475
2018-02-02T14:39:56.293Z,99451
2018-02-02T14:42:22.359Z,99483
2018-02-02T14:44:48.475Z,99483
2018-02-02T14:47:14.549Z,99500
2018-02-02T14:49:41.355Z,99508
2018-02-02T14:52:07.449Z,99509
2018-02-02T14:54:33.541Z,99522
2018-02-02T14:56:59.641Z,99525
2018-02-02T14:59:25.748Z,99524
2018-02-02T15:01:52.837Z,99519
2018-02-02T15:04:19.651Z,99529
2018-02-02T15:06:45.724Z,99525
2018-02-02T15:09:11.793Z,99523
2018-02-02T15:11:37.848Z,99510
2018-02-02T15:14:03.913Z,99522
2018-02-02T15:16:30.006Z,99511
2018-02-02T15:18:57.085Z,99514
2018-02-02T15:21:23.244Z,99521
2018-02-02T15:23:49.369Z,99510
2018-02-02T15:26:15.461Z,99525
2018-02-02T15:28:41.561Z,99523
2018-02-02T15:31:08.383Z,99533
2018-02-02T15:33:34.474Z,99521
2018-02-02T15:36:00.562Z,99528
2018-02-02T15:38:27.366Z,99517
2018-02-02T15:40:53.462Z,99522
2018-02-02T15:43:19.529Z,99532
2018-02-02T15:45:45.625Z,99530
2018-02-02T15:48:19.539Z,99530
2018-02-02T15:50:45.642Z,99531
2018-02-02T15:53:11.753Z,99541
2018-02-02T15:55:38.764Z,99535
2018-02-02T16:00:45.425Z,99539
2018-02-02T16:03:11.525Z,99542
2018-02-02T16:05:37.765Z,99533
2018-02-02T16:08:03.845Z,99526
2018-02-02T16:10:29.942Z,99540
2018-02-02T16:12:56.029Z,99534
2018-02-02T16:15:23.507Z,99544
2018-02-02T16:17:53.800Z,99535
2018-02-02T16:20:22.289Z,99534
2018-02-02T16:22:49.330Z,99536
2018-02-02T16:25:15.449Z,99533
2018-02-02T16:27:42.437Z,99550
2018-02-02T16:30:10.424Z,99548
2018-02-02T16:32:36.744Z,99556
2018-02-02T16:35:04.575Z,99556
2018-02-02T16:37:31.874Z,99560
2018-02-02T16:39:59.124Z,99560
2018-02-02T16:42:25.211Z,99561
2018-02-02T16:44:51.288Z,99554
2018-02-02T16:47:17.360Z,99571
2018-02-02T16:49:43.458Z,99570
2018-02-02T16:52:09.785Z,99572
2018-02-02T16:54:36.614Z,99570
2018-02-02T16:57:02.715Z,99581
2018-02-02T16:59:28.823Z,99574
2018-02-02T17:01:54.909Z,99577
2018-02-02T17:04:20.993Z,99578
2018-02-02T17:06:47.078Z,99578
2018-02-02T17:09:13.181Z,99568
2018-02-02T17:11:40.010Z,99575
2018-02-02T17:14:06.090Z,99579
2018-02-02T17:16:32.170Z,99576
2018-02-02T17:18:58.987Z,99582
2018-02-02T17:21:25.058Z,99591
2018-02-02T17:23:51.127Z,99593
2018-02-02T17:26:17.253Z,99588
2018-02-02T17:28:43.380Z,99594
2018-02-02T17:31:09.437Z,99596
2018-02-02T17:33:36.275Z,99598
2018-02-02T17:36:03.097Z,99599
2018-02-02T17:38:29.194Z,99604
2018-02-02T17:40:55.406Z,99609
2018-02-02T17:43:21.494Z,99599
2018-02-02T17:45:47.587Z,99605
2018-02-02T17:48:13.667Z,99611
2018-02-02T17:50:39.858Z,99615
2018-02-02T17:53:05.934Z,99613
2018-02-02T17:55:31.998Z,99612
2018-02-02T17:57:58.089Z,99614
2018-02-02T18:00:29.630Z,99614
2018-02-02T18:02:59.557Z,99610
2018-02-02T18:05:25.642Z,99613
2018-02-02T18:07:51.712Z,99620
2018-02-02T18:10:17.797Z,99621
2018-02-02T18:12:43.858Z,99618
2018-02-02T18:15:09.950Z,99625
2018-02-02T18:17:36.777Z,99635
2018-02-02T18:20:03.217Z,99632
2018-02-02T18:22:29.286Z,99639
2018-02-02T18:24:55.369Z,99625
2018-02-02T18:27:22.169Z,99633
2018-02-02T18:29:48.245Z,99635
2018-02-02T18:32:14.309Z,99630
2018-02-02T18:34:40.425Z,99630
2018-02-02T18:37:06.502Z,99630
2018-02-02T18:39:33.305Z,99638
2018-02-02T18:41:59.397Z,99636
2018-02-02T18:44:25.477Z,99630
2018-02-02T18:46:51.565Z,99636
2018-02-02T18:49:17.643Z,99644
2018-02-02T18:51:45.649Z,99640
2018-02-02T18:54:11.718Z,99645
2018-02-02T18:56:37.786Z,99634
2018-02-02T18:59:03.868Z,99640
2018-02-02T19:01:29.989Z,99639
2018-02-02T19:03:56.018Z,99654
2018-02-02T19:06:22.093Z,99639
2018-02-02T19:08:48.158Z,99639
2018-02-02T19:11:14.230Z,99639
2018-02-02T19:13:41.059Z,99648
2018-02-02T19:16:07.138Z,99644
2018-02-02T19:18:33.217Z,99642
2018-02-02T19:20:59.333Z,99639
2018-02-02T19:23:25.417Z,99644
2018-02-02T19:25:51.480Z,99646
2018-02-02T19:28:18.285Z,99647
2018-02-02T19:30:44.358Z,99650
2018-02-02T19:33:10.449Z,99661
2018-02-02T19:35:36.513Z,99656
2018-02-02T19:38:03.338Z,99662
2018-02-02T19:40:29.418Z,99666
2018-02-02T19:42:55.489Z,99664
2018-02-02T19:45:23.070Z,99674
2018-02-02T19:47:49.145Z,99670
2018-02-02T19:50:15.209Z,99677
2018-02-02T19:52:41.322Z,99670
2018-02-02T19:55:07.412Z,99663
2018-02-02T19:57:33.567Z,99671
2018-02-02T19:59:59.645Z,99679
2018-02-02T20:02:25.767Z,99674
2018-02-02T20:04:51.857Z,99671
2018-02-02T20:07:18.673Z,99681
2018-02-02T20:09:44.742Z,99687
2018-02-02T20:12:11.550Z,99701
2018-02-02T20:14:37.637Z,99695
2018-02-02T20:17:03.733Z,99708
2018-02-02T20:19:29.810Z,99701
2018-02-02T20:21:55.930Z,99699
2018-02-02T20:24:22.306Z,99703
2018-02-02T20:26:49.123Z,99714
2018-02-02T20:29:15.234Z,99712
2018-02-02T20:31:41.298Z,99714
2018-02-02T20:34:08.137Z,99710
2018-02-02T20:36:34.210Z,99718
2018-02-02T20:39:00.282Z,99727
2018-02-02T20:41:27.560Z,99723
2018-02-02T20:43:53.630Z,99719
2018-02-02T20:46:19.710Z,99729
2018-02-02T20:48:45.788Z,99715
2018-02-02T20:51:12.006Z,99716
2018-02-02T20:53:38.093Z,99727
2018-02-02T20:56:04.268Z,99728
2018-02-02T20:58:30.346Z,99708
2018-02-02T21:00:56.422Z,99715
2018-02-02T21:03:22.505Z,99714
2018-02-02T21:05:48.582Z,99709
2018-02-02T21:08:14.653Z,99722
2018-02-02T21:10:40.741Z,99711
2018-02-02T21:13:06.822Z,99709
2018-02-02T21:15:32.902Z,99721
2018-02-02T21:17:58.985Z,99714
2018-02-02T21:20:25.054Z,99722
2018-02-02T21:22:51.126Z,99709
2018-02-02T21:25:17.621Z,99717
2018-02-02T21:27:44.439Z,99714
2018-02-02T21:30:10.520Z,99721
2018-02-02T21:32:36.597Z,99726
2018-02-02T21:35:03.413Z,99725
2018-02-02T21:37:29.503Z,99729
2018-02-02T21:39:55.577Z,99732
2018-02-02T21:42:21.642Z,99741
2018-02-02T21:44:47.717Z,99739
2018-02-02T21:47:13.797Z,99736
2018-02-02T21:49:39.878Z,99745
2018-02-02T21:52:06.462Z,99749
2018-02-02T21:54:32.533Z,99744
2018-02-02T21:56:58.608Z,99754
2018-02-02T21:59:24.674Z,99751
2018-02-02T22:01:50.737Z,99750
2018-02-02T22:04:17.554Z,99750
2018-02-02T22:06:43.626Z,99760
2018-02-02T22:09:09.689Z,99750
2018-02-02T22:11:35.776Z,99762
2018-02-02T22:14:01.854Z,99761
2018-02-02T22:16:27.926Z,99772
2018-02-02T22:18:54.016Z,99770
2018-02-02T22:21:27.005Z,99770
2018-02-02T22:23:53.554Z,99782
2018-02-02T22:26:20.373Z,99778
2018-02-02T22:28:46.458Z,99780
2018-02-02T22:31:12.550Z,99783
2018-02-02T22:33:39.361Z,99788
2018-02-02T22:36:05.429Z,99787
2018-02-02T22:38:31.514Z,99792
2018-02-02T22:40:57.601Z,99785
2018-02-02T22:43:23.678Z,99791
2018-02-02T22:45:50.486Z,99788
2018-02-02T22:48:16.574Z,99792
2018-02-02T22:50:42.678Z,99795
2018-02-02T22:53:08.774Z,99792
2018-02-02T22:55:34.849Z,99792
2018-02-02T22:58:00.925Z,99796
2018-02-02T23:00:27.025Z,99803
2018-02-02T23:02:53.106Z,99809
2018-02-02T23:05:19.949Z,99813
2018-02-02T23:07:46.026Z,99822
2018-02-02T23:10:12.110Z,99808
2018-02-02T23:12:38.201Z,99809
2018-02-02T23:15:04.279Z,99819
2018-02-02T23:17:30.367Z,99823
2018-02-02T23:19:57.212Z,99830
2018-02-02T23:22:24.243Z,99827
2018-02-02T23:24:50.334Z,99828
2018-02-02T23:27:16.407Z,99835
2018-02-02T23:29:42.507Z,99826
2018-02-02T23:32:08.593Z,99834
2018-02-02T23:34:34.675Z,99826
2018-02-02T23:37:01.505Z,99835
2018-02-02T23:39:27.765Z,99832
2018-02-02T23:41:53.872Z,99841
2018-02-02T23:44:19.952Z,99842
2018-02-02T23:46:46.045Z,99845
2018-02-02T23:49:12.140Z,99841
2018-02-02T23:51:38.234Z,99853
2018-02-02T23:54:04.696Z,99843
2018-02-02T23:56:30.765Z,99847
2018-02-02T23:58:56.849Z,99843
